HOURLY OBS INDEX

084

East Gippsland

COMBIENBAR AWS

Site: 084143
Alt: 640.0m
64km NE of ORBOST


  Time     Wind        Temp  DP   Baro     Rain since   Rain past  Vis(m), Cloud(base in m), Weather
  local        km/h                         9am  last   hr   10m    
Thu 09:00  WSW  7/ 17   7.4 -2.1  1010.2    0.0   0.0   0.0   0.0   ----- 
Thu 09:30   SW  6/ 17   7.9 -2.1  1010.3    0.0   0.0   0.0   0.0   ----- 
Thu 10:00   SW  9/ 17   8.2 -1.9  1010.5    0.0   0.0   0.0   0.0   ----- 
Thu 10:30   SW  9/ 15   8.6 -2.1  1010.6    0.0   0.0   0.0   0.0   ----- 
Thu 11:00   SW  7/ 22   9.0 -2.0  1010.6    0.0   0.0   0.0   0.0   ----- 
Thu 11:30   SW 11/ 17   9.6 -2.0  1010.7    0.0   0.0   0.0   0.0   ----- 
Thu 12:00   SW  9/ 19   9.8 -2.5  1010.4    0.0   0.0   0.0   0.0   ----- 
Thu 12:30   SW 11/ 24  10.2 -3.1  1010.2    0.0   0.0   0.0   0.0   ----- 
Thu 13:00   SW  7/ 13  10.9 -1.5  1010.0    0.0   0.0   0.0   0.0   ----- 
Thu 13:30   SW  6/ 11  11.1 -2.0  1009.9    0.0   0.0   0.0   0.0   ----- 
Thu 14:00   SW  7/ 19  10.9 -1.2  1010.0    0.0   0.0   0.0   0.0   ----- 

GABO ISLAND LIGHTHOUSE

Site: 084016
Alt: 15.2m
14km E of MALLACOOTA


  Time     Wind        Temp  DP   Baro     Rain since   Rain past  Vis(m), Cloud(base in m), Weather
  local        km/h                         9am  last   hr   10m    
Thu 09:00    W 32/ 45  12.5  1.5  1009.8    0.0   0.0   0.0   0.0   ----- 
Thu 09:30    W 37/ 48  13.1  1.4  1009.9    0.0   0.0   0.0   0.0   ----- 
Thu 10:00    W 41/ 50  13.4  0.9  1010.1    0.0   0.0   0.0   0.0   ----- 
Thu 10:30  WSW 37/ 48  14.0  2.2  1010.1    0.0   0.0   0.0   0.0   ----- 
Thu 11:00  WSW 35/ 45  14.6  2.1  1010.3    0.0   0.0   0.0   0.0   ----- 
Thu 11:30  WSW 35/ 50  14.6  2.5  1010.3    0.0   0.0   0.0   0.0   ----- 
Thu 12:00  WSW 43/ 50  14.7  2.6  1010.0    0.0   0.0   0.0   0.0   ----- 
Thu 12:30  WSW 35/ 46  15.1  2.6  1009.8    0.0   0.0   0.0   0.0   ----- 
Thu 13:00  WSW 35/ 50  14.7  2.9  1009.6    0.0   0.0   0.0   0.0   ----- 
Thu 13:30   SW 41/ 52  14.6  3.6  1009.5    0.0   0.0   0.0   0.0   ----- 
Thu 14:00   SW 43/ 54  13.4  5.0  1009.4    0.0   0.0   0.0   0.0   ----- 

GELANTIPY

Site: 084142
Alt: 755.0m
56km NNW of ORBOST


  Time     Wind        Temp  DP   Baro     Rain since   Rain past  Vis(m), Cloud(base in m), Weather
  local        km/h                         9am  last   hr   10m    
Thu 09:00    W 19/ 26   6.5----  1010.0    0.6   0.0   0.0   0.0   ----- 
Thu 09:30    W 22/ 35   7.1----  1010.0    0.0   0.0   0.0   0.0   ----- 
Thu 10:00    W 24/ 35   7.7----  1010.2    0.0   0.0   0.0   0.0   ----- 
Thu 10:30    W 19/ 33   8.2----  1010.4    0.0   0.0   0.0   0.0   ----- 
Thu 11:00  WSW 19/ 28   8.9----  1010.4    0.0   0.0   0.0   0.0   ----- 
Thu 11:30    W 20/ 30   8.7----  1010.4    0.0   0.0   0.0   0.0   ----- 
Thu 12:00  WNW 24/ 32   9.1----  1010.2    0.0   0.0   0.0   0.0   ----- 
Thu 12:30  WNW 24/ 32   9.5----  1009.8    0.0   0.0   0.0   0.0   ----- 
Thu 13:00   SW 17/ 22   9.7----  1009.6    0.0   0.0   0.0   0.0   ----- 
Thu 13:30    W 24/ 43   9.7----  1009.6    0.0   0.0   0.0   0.0   ----- 
Thu 14:00  WSW 22/ 39  10.0----  1009.6    0.0   0.0   0.0   0.0   ----- 

MALLACOOTA

Site: 084084
Alt: 22.0m
5km SSW of MALLACOOTA


  Time     Wind        Temp  DP   Baro     Rain since   Rain past  Vis(m), Cloud(base in m), Weather
  local        km/h                         9am  last   hr   10m    
Thu 09:00    W 17/ 28  12.5  2.1  1010.0    0.6   0.0   0.0   0.0   ----- 
Thu 09:30    W 20/ 32  13.0  1.7  1010.0    0.0   0.0   0.0   0.0   ----- 
Thu 10:00    W 19/ 35  13.6  1.9  1010.1    0.0   0.0   0.0   0.0   ----- 
Thu 10:30   SW 22/ 33  14.1  1.7  1010.1    0.0   0.0   0.0   0.0   ----- 
Thu 11:00  WSW 20/ 39  15.0  2.5  1010.3    0.0   0.0   0.0   0.0   ----- 
Thu 11:30  WSW 22/ 43  14.5  0.7  1010.3    0.0   0.0   0.0   0.0   ----- 
Thu 12:00   SW 22/ 35  14.3  0.9  1010.2    0.0   0.0   0.0   0.0   ----- 
Thu 12:30    W 19/ 32  14.4  1.3  1009.7    0.0   0.0   0.0   0.0   ----- 
Thu 13:00  WSW 20/ 32  14.9  1.4  1009.6    0.0   0.0   0.0   0.0   ----- 
Thu 13:30   SW 20/ 35  15.1  0.9  1009.5    0.0   0.0   0.0   0.0   ----- 
Thu 14:00   SW 20/ 41  15.6  1.0  1009.5    0.0   0.0   0.0   0.0   ----- 

MOUNT NOWA NOWA

Site: 084144
Alt: 350.0m
32km W of ORBOST


  Time     Wind        Temp  DP   Baro     Rain since   Rain past  Vis(m), Cloud(base in m), Weather
  local        km/h                         9am  last   hr   10m    
Thu 09:00  WNW 11/ 20   7.5  0.9  ------    4.2   0.0   0.0   0.0   ----- 
Thu 09:30  WNW 11/ 22   8.7  1.8  ------    0.0   0.0   0.0   0.0   ----- 
Thu 10:00    W 15/ 24  10.1  1.2  ------    0.0   0.0   0.0   0.0   ----- 
Thu 10:30    W 17/ 33  10.4  1.2  ------    0.0   0.0   0.0   0.0   ----- 
Thu 11:00    W 17/ 33  11.3  1.8  ------    0.0   0.0   0.0   0.0   ----- 
Thu 11:30    W 15/ 26  11.5  1.5  ------    0.0   0.0   0.0   0.0   ----- 
Thu 12:00    W 15/ 28  11.8  1.7  ------    0.0   0.0   0.0   0.0   ----- 
Thu 12:30    W 11/ 17  13.4  2.0  ------    0.0   0.0   0.0   0.0   ----- 
Thu 13:00    W 13/ 24  14.1  2.0  ------    0.0   0.0   0.0   0.0   ----- 
Thu 13:30    W 13/ 24  13.5  1.8  ------    0.0   0.0   0.0   0.0   ----- 
Thu 14:00    W 13/ 24  13.1  1.5  ------    0.0   0.0   0.0   0.0   ----- 

ORBOST

Site: 084145
Alt: 62.7m
1km NNE of ORBOST


  Time     Wind        Temp  DP   Baro     Rain since   Rain past  Vis(m), Cloud(base in m), Weather
  local        km/h                         9am  last   hr   10m    
Thu 09:00   NW 15/ 20 --------  1010.6    3.0   0.0   0.0   0.0   ----- 
Thu 09:30  WNW 17/ 26 --------  1010.9    0.0   0.0   0.0   0.0   ----- 
Thu 10:00  WNW 20/ 32 --------  1010.9    0.0   0.0   0.0   0.0   ----- 
Thu 10:30    W 24/ 35  13.0  1.7  1011.0    0.0   0.0   0.0   0.0   ----- 
Thu 11:00  WNW 20/ 33  13.7  2.3  1011.1    0.0   0.0   0.0   0.0   ----- 
Thu 11:30    W 22/ 35  14.6  3.4  1011.0    0.0   0.0   0.0   0.0   ----- 
Thu 12:00    W 24/ 35  14.3  2.2  1010.9    0.0   0.0   0.0   0.0   ----- 
Thu 12:30    W 22/ 37  14.7  2.6  1010.6    0.0   0.0   0.0   0.0   ----- 
Thu 13:00    W 17/ 24  14.9  3.7  1010.4    0.0   0.0   0.0   0.0   ----- 
Thu 13:30  WNW 15/ 28  16.0  3.4  1010.2    0.0   0.0   0.0   0.0   ----- 
Thu 14:00    W 24/ 35  16.0  2.8  1010.1    0.0   0.0   0.0   0.0   -----